createdAt,value
2022-10-01T00:06:41.557Z,2.50
2022-10-01T00:16:45.670Z,2.50
2022-10-01T00:26:48.547Z,2.55
2022-10-01T00:36:52.612Z,2.65
2022-10-01T00:46:57.835Z,2.70
2022-10-01T00:57:04.060Z,2.85
2022-10-01T01:07:07.135Z,3.28
2022-10-01T01:17:15.536Z,3.42
2022-10-01T01:27:39.011Z,3.53
2022-10-01T01:37:50.210Z,4.18
2022-10-01T01:47:56.157Z,4.60
2022-10-01T01:58:00.385Z,4.65
2022-10-01T02:08:16.208Z,5.72
2022-10-01T02:18:29.508Z,6.45
2022-10-01T02:28:35.128Z,5.68
2022-10-01T02:38:42.671Z,6.57
2022-10-01T02:48:45.566Z,7.32
2022-10-01T02:58:52.412Z,7.25
2022-10-01T03:08:55.137Z,6.72
2022-10-01T03:18:59.180Z,6.88
2022-10-01T03:29:01.803Z,6.55
2022-10-01T03:39:05.910Z,8.07
2022-10-01T03:49:08.772Z,6.97
2022-10-01T03:59:13.385Z,6.60
2022-10-01T04:09:16.072Z,4.35
2022-10-01T04:19:20.551Z,3.92
2022-10-01T04:29:23.198Z,4.47
2022-10-01T04:39:27.295Z,4.15
2022-10-01T04:49:29.991Z,4.03
2022-10-01T04:59:34.137Z,4.15
2022-10-01T05:09:36.843Z,3.35
2022-10-01T05:19:40.911Z,3.42
2022-10-01T05:29:44.087Z,3.42
2022-10-01T05:39:48.486Z,3.05
2022-10-01T05:49:51.189Z,3.10
2022-10-01T05:59:56.211Z,3.03
2022-10-01T06:09:58.866Z,3.15
2022-10-01T06:20:03.144Z,3.20
2022-10-01T06:30:06.548Z,3.13
2022-10-01T06:40:11.479Z,3.20
2022-10-01T06:50:14.164Z,2.78
2022-10-01T07:00:18.348Z,3.58
2022-10-01T07:10:23.273Z,3.08
2022-10-01T07:20:27.332Z,3.35
2022-10-01T07:30:30.056Z,3.80
2022-10-01T07:40:34.149Z,3.75
2022-10-01T07:50:36.993Z,3.35
2022-10-01T08:00:43.116Z,3.90
2022-10-01T08:10:46.869Z,3.78
2022-10-01T08:20:51.863Z,3.40
2022-10-01T08:30:56.061Z,3.10
2022-10-01T08:41:06.092Z,3.75
2022-10-01T09:01:15.303Z,2.30
2022-10-01T09:11:35.216Z,2.60
2022-10-01T09:21:55.112Z,2.30
2022-10-01T09:32:00.446Z,2.38
2022-10-01T09:42:05.083Z,1.80
2022-10-01T09:52:13.767Z,1.52
2022-10-01T10:02:23.542Z,1.70
2022-10-01T10:12:30.369Z,1.70
2022-10-01T10:22:34.424Z,1.55
2022-10-01T10:32:37.339Z,1.45
2022-10-01T10:42:48.941Z,1.77
2022-10-01T10:52:51.824Z,1.42
2022-10-01T11:02:58.441Z,1.60
2022-10-01T11:13:14.829Z,1.20
2022-10-01T11:23:46.055Z,1.10
2022-10-01T11:34:01.758Z,0.70
2022-10-01T11:44:13.812Z,0.90
2022-10-01T11:54:22.222Z,0.80
2022-10-01T12:04:32.206Z,0.80
2022-10-01T12:14:41.460Z,1.35
2022-10-01T12:24:46.677Z,4.03
2022-10-01T12:34:57.868Z,1.13
2022-10-01T12:45:12.671Z,1.08
2022-10-01T12:55:23.374Z,1.10
2022-10-01T13:05:36.418Z,2.72
2022-10-01T13:15:42.098Z,2.22
2022-10-01T13:26:01.090Z,1.10
2022-10-01T13:36:06.456Z,3.37
2022-10-01T13:46:12.087Z,1.35
2022-10-01T13:56:28.087Z,1.02
2022-10-01T14:06:38.449Z,1.30
2022-10-01T14:16:43.478Z,1.45
2022-10-01T14:26:53.307Z,1.38
2022-10-01T14:47:01.444Z,1.58
2022-10-01T14:57:10.754Z,0.80
2022-10-01T15:07:17.117Z,1.00
2022-10-01T15:17:23.722Z,2.47
2022-10-01T15:27:28.038Z,0.90
2022-10-01T15:37:34.248Z,1.00
2022-10-01T15:47:39.077Z,0.85
2022-10-01T15:57:42.546Z,0.95
2022-10-01T16:07:54.462Z,1.00
2022-10-01T16:17:59.100Z,1.05
2022-10-01T16:28:05.366Z,2.75
2022-10-01T16:38:08.305Z,2.20
2022-10-01T16:48:17.328Z,1.60
2022-10-01T16:58:21.706Z,2.03
2022-10-01T17:08:25.766Z,3.05
2022-10-01T17:18:29.078Z,3.47
2022-10-01T17:28:33.145Z,2.67
2022-10-01T17:38:36.256Z,1.40
2022-10-01T17:48:41.038Z,2.05
2022-10-01T17:58:45.821Z,2.92
2022-10-01T18:08:55.609Z,3.00
2022-10-01T18:29:26.168Z,4.78
2022-10-01T18:39:35.887Z,2.30
2022-10-01T18:50:12.135Z,2.30
2022-10-01T19:00:17.987Z,2.58
2022-10-01T19:10:26.120Z,2.42
2022-10-01T19:21:01.260Z,2.75
2022-10-01T19:31:12.540Z,3.78
2022-10-01T19:41:23.325Z,3.65
2022-10-01T19:51:31.147Z,2.88
2022-10-01T20:01:39.566Z,3.08
2022-10-01T20:11:49.340Z,2.60
2022-10-01T20:22:02.110Z,2.23
2022-10-01T20:32:11.424Z,1.42
2022-10-01T20:42:23.540Z,2.03
2022-10-01T20:52:34.236Z,1.55
2022-10-01T21:02:43.295Z,1.80
2022-10-01T21:12:59.919Z,1.90
2022-10-01T21:23:14.115Z,1.92
2022-10-01T21:33:24.889Z,1.70
2022-10-01T21:43:45.891Z,2.00
2022-10-01T21:54:12.228Z,2.15
2022-10-01T22:04:23.320Z,1.15
2022-10-01T22:14:28.261Z,1.40
2022-10-01T22:24:37.468Z,1.42
2022-10-01T22:34:43.184Z,1.10
2022-10-01T22:44:48.068Z,1.77
2022-10-01T22:55:03.632Z,1.55
2022-10-01T23:05:17.827Z,0.80
2022-10-01T23:15:33.451Z,1.98
2022-10-01T23:25:52.953Z,1.58
2022-10-01T23:36:04.959Z,1.87
2022-10-01T23:46:13.682Z,1.25
2022-10-01T23:56:38.856Z,1.95
